Time;durP1;ratioP1;P1;durP2;ratioP2;P2;SDS_P1;SDS_P2;PMS_P1;PMS_P2;Temp;Humidity;BMP_temperature;BMP_pressure;BME280_temperature;BME280_humidity;BME280_pressure;Samples;Min_cycle;Max_cycle;Signal;HPM_P1;HPM_P2
2024/01/27 00:03:14;;;;;;;8.20;1.70;;;;;;;;;;10451916;28;20204;-69
2024/01/27 00:08:14;;;;;;;5.83;1.70;;;;;;;;;;10452348;28;20557;-69
2024/01/27 00:13:14;;;;;;;8.60;1.83;;;;;;;;;;10451713;28;20269;-68
2024/01/27 00:18:15;;;;;;;11.73;1.83;;;;;;;;;;10461085;28;20191;-69
2024/01/27 00:23:16;;;;;;;8.17;1.90;;;;;;;;;;10460542;28;20230;-69
2024/01/27 00:28:16;;;;;;;8.37;1.50;;;;;;;;;;10460260;28;20627;-69
2024/01/27 00:33:16;;;;;;;4.43;1.73;;;;;;;;;;10460340;28;20850;-69
2024/01/27 00:38:16;;;;;;;11.53;2.33;;;;;;;;;;10461549;28;20180;-69
2024/01/27 00:43:16;;;;;;;8.33;1.43;;;;;;;;;;10460632;28;20231;-69
2024/01/27 00:48:17;;;;;;;2.77;1.20;;;;;;;;;;10459866;28;20225;-69
2024/01/27 00:53:17;;;;;;;6.37;1.50;;;;;;;;;;10460056;28;20922;-68
2024/01/27 00:58:17;;;;;;;9.73;1.50;;;;;;;;;;10460589;28;20196;-68
2024/01/27 01:03:17;;;;;;;11.80;2.17;;;;;;;;;;10460111;28;20208;-70
2024/01/27 01:08:17;;;;;;;6.03;1.73;;;;;;;;;;10459381;28;20641;-68
2024/01/27 01:13:17;;;;;;;5.70;1.73;;;;;;;;;;10462208;28;20229;-70
2024/01/27 01:18:18;;;;;;;10.03;1.80;;;;;;;;;;10458251;28;20234;-70
2024/01/27 01:23:18;;;;;;;7.93;1.87;;;;;;;;;;10457415;28;20215;-69
2024/01/27 01:28:18;;;;;;;11.90;2.00;;;;;;;;;;10457121;28;20179;-69
2024/01/27 01:33:18;;;;;;;5.73;1.57;;;;;;;;;;10458565;28;20203;-67
2024/01/27 01:38:18;;;;;;;7.13;2.07;;;;;;;;;;10456729;28;20192;-70
2024/01/27 01:43:18;;;;;;;6.70;1.90;;;;;;;;;;10456846;28;20636;-70
2024/01/27 01:48:22;;;;;;;10.67;1.90;;;;;;;;;;10458290;28;20199;-70
2024/01/27 01:53:22;;;;;;;10.40;1.97;;;;;;;;;;10458926;28;20208;-70
2024/01/27 01:58:22;;;;;;;9.77;2.10;;;;;;;;;;10458492;28;20188;-69
2024/01/27 02:03:23;;;;;;;10.43;2.37;;;;;;;;;;10457925;28;20207;-69
2024/01/27 02:08:23;;;;;;;6.73;1.93;;;;;;;;;;10460843;28;20271;-69
2024/01/27 02:13:23;;;;;;;6.97;1.73;;;;;;;;;;10459316;28;20259;-70
2024/01/27 02:18:23;;;;;;;21.80;2.13;;;;;;;;;;10457487;28;20190;-69
2024/01/27 02:23:23;;;;;;;10.90;1.87;;;;;;;;;;10457697;28;20211;-69
2024/01/27 02:28:25;;;;;;;14.83;2.53;;;;;;;;;;10457934;28;20221;-69
2024/01/27 02:33:25;;;;;;;13.20;2.17;;;;;;;;;;10457963;28;20207;-69
2024/01/27 02:38:25;;;;;;;11.13;2.23;;;;;;;;;;10456320;28;20187;-69
2024/01/27 02:43:26;;;;;;;16.40;2.67;;;;;;;;;;10456200;28;20240;-69
2024/01/27 02:48:26;;;;;;;10.67;2.30;;;;;;;;;;10457823;28;20271;-69
2024/01/27 02:53:26;;;;;;;14.97;2.33;;;;;;;;;;10455283;28;20596;-69
2024/01/27 02:58:26;;;;;;;10.17;1.83;;;;;;;;;;10456328;28;20207;-69
2024/01/27 03:03:26;;;;;;;11.13;2.57;;;;;;;;;;10455894;28;20306;-69
2024/01/27 03:08:27;;;;;;;9.90;1.77;;;;;;;;;;10456898;28;20188;-69
2024/01/27 03:13:27;;;;;;;9.40;2.20;;;;;;;;;;10455594;28;20710;-69
2024/01/27 03:18:27;;;;;;;15.23;2.70;;;;;;;;;;10453973;28;20202;-68
2024/01/27 03:23:28;;;;;;;12.83;2.30;;;;;;;;;;10453385;28;20593;-69
2024/01/27 03:28:28;;;;;;;12.10;1.93;;;;;;;;;;10452061;28;20251;-68
2024/01/27 03:33:31;;;;;;;11.57;2.20;;;;;;;;;;10453936;28;20207;-70
2024/01/27 03:38:31;;;;;;;13.53;2.63;;;;;;;;;;10454132;28;20778;-69
2024/01/27 03:43:33;;;;;;;18.87;2.80;;;;;;;;;;10456402;28;20314;-69
2024/01/27 03:48:36;;;;;;;17.10;2.63;;;;;;;;;;10456783;28;20194;-69
2024/01/27 03:53:37;;;;;;;9.60;2.33;;;;;;;;;;10456962;28;20302;-69
2024/01/27 03:58:38;;;;;;;13.10;2.30;;;;;;;;;;10455814;28;20262;-70
2024/01/27 04:03:38;;;;;;;9.60;2.20;;;;;;;;;;10453010;28;20575;-69
2024/01/27 04:08:39;;;;;;;12.43;2.63;;;;;;;;;;10452203;28;20195;-69
2024/01/27 04:13:39;;;;;;;12.57;2.50;;;;;;;;;;10453338;28;20591;-69
2024/01/27 04:18:41;;;;;;;13.13;2.40;;;;;;;;;;10453485;28;20192;-69
2024/01/27 04:23:41;;;;;;;14.23;2.20;;;;;;;;;;10456240;28;20207;-69
2024/01/27 04:28:42;;;;;;;13.43;2.07;;;;;;;;;;10456016;28;20196;-69
2024/01/27 04:33:42;;;;;;;8.20;2.27;;;;;;;;;;10453783;28;20216;-69
2024/01/27 04:38:43;;;;;;;18.50;3.13;;;;;;;;;;10246861;22;20301;-67
2024/01/27 04:43:43;;;;;;;12.53;2.33;;;;;;;;;;10221596;28;20464;-67
2024/01/27 04:48:43;;;;;;;17.27;2.23;;;;;;;;;;10221318;28;20239;-68
2024/01/27 04:53:43;;;;;;;11.40;2.47;;;;;;;;;;10220975;28;20215;-68
2024/01/27 04:58:44;;;;;;;12.20;2.37;;;;;;;;;;10220850;28;20216;-67
2024/01/27 05:03:44;;;;;;;18.53;2.43;;;;;;;;;;10227076;28;20200;-67
2024/01/27 05:08:45;;;;;;;14.13;2.80;;;;;;;;;;10227533;28;20640;-68
2024/01/27 05:13:45;;;;;;;17.60;3.07;;;;;;;;;;10227548;28;20223;-68
2024/01/27 05:18:45;;;;;;;6.20;2.20;;;;;;;;;;10227278;28;20278;-68
2024/01/27 05:23:45;;;;;;;20.77;2.87;;;;;;;;;;10227253;29;20192;-68
2024/01/27 05:28:45;;;;;;;22.10;2.63;;;;;;;;;;10226910;28;20277;-67
2024/01/27 05:33:46;;;;;;;13.73;2.90;;;;;;;;;;10226651;28;20215;-68
2024/01/27 05:38:46;;;;;;;10.23;2.00;;;;;;;;;;10226615;28;20234;-68
2024/01/27 05:43:46;;;;;;;11.93;2.00;;;;;;;;;;10226495;28;20207;-67
2024/01/27 05:48:46;;;;;;;12.53;2.20;;;;;;;;;;10226120;28;20298;-68
2024/01/27 05:53:46;;;;;;;8.87;2.10;;;;;;;;;;10226230;29;20219;-67
2024/01/27 05:58:47;;;;;;;15.37;2.20;;;;;;;;;;10225717;28;20293;-67
2024/01/27 06:03:47;;;;;;;12.03;2.57;;;;;;;;;;10225940;28;20199;-68
2024/01/27 06:08:47;;;;;;;16.10;2.47;;;;;;;;;;10225374;28;20212;-67
2024/01/27 06:13:48;;;;;;;18.47;2.40;;;;;;;;;;10224746;29;20524;-67
2024/01/27 06:18:48;;;;;;;9.60;1.50;;;;;;;;;;10225528;28;20224;-68
2024/01/27 06:23:48;;;;;;;14.17;2.80;;;;;;;;;;10224988;28;20257;-68
2024/01/27 06:28:49;;;;;;;18.17;2.90;;;;;;;;;;10225208;28;20207;-68
2024/01/27 06:33:49;;;;;;;17.37;2.93;;;;;;;;;;10223957;29;20218;-68
2024/01/27 06:38:49;;;;;;;11.60;2.23;;;;;;;;;;10222857;28;20249;-68
2024/01/27 06:43:49;;;;;;;11.67;2.40;;;;;;;;;;10224474;29;20447;-68
2024/01/27 06:48:49;;;;;;;22.97;3.17;;;;;;;;;;10224283;28;20215;-68
2024/01/27 06:53:50;;;;;;;13.73;2.37;;;;;;;;;;10224242;29;20219;-68
2024/01/27 06:58:50;;;;;;;14.90;3.07;;;;;;;;;;10223765;28;20328;-68
2024/01/27 07:03:50;;;;;;;16.07;2.83;;;;;;;;;;10224205;29;20642;-68
2024/01/27 07:08:50;;;;;;;13.07;2.63;;;;;;;;;;10223475;28;20595;-68
2024/01/27 07:13:50;;;;;;;17.53;2.93;;;;;;;;;;10224231;29;20304;-68
2024/01/27 07:18:51;;;;;;;14.03;2.67;;;;;;;;;;10224111;28;20223;-68
2024/01/27 07:23:52;;;;;;;9.13;2.03;;;;;;;;;;10222997;28;20204;-68
2024/01/27 07:28:52;;;;;;;16.57;2.50;;;;;;;;;;10222689;28;20238;-68
2024/01/27 07:33:52;;;;;;;13.10;3.03;;;;;;;;;;10222618;29;20298;-68
2024/01/27 07:38:52;;;;;;;7.33;2.33;;;;;;;;;;10221737;28;20247;-68
2024/01/27 07:43:54;;;;;;;18.07;2.53;;;;;;;;;;10222150;28;20192;-68
2024/01/27 07:48:54;;;;;;;16.50;3.00;;;;;;;;;;10222158;28;20835;-68
2024/01/27 07:53:54;;;;;;;11.63;2.70;;;;;;;;;;10222204;29;20230;-67
2024/01/27 07:58:55;;;;;;;15.60;3.00;;;;;;;;;;10214102;28;20302;-67
2024/01/27 08:03:55;;;;;;;14.90;2.97;;;;;;;;;;10218658;29;20198;-67
2024/01/27 08:08:55;;;;;;;17.13;2.77;;;;;;;;;;10220308;28;20203;-67
2024/01/27 08:13:55;;;;;;;19.65;3.75;;;;;;;;;;10219892;28;20227;-67
2024/01/27 08:18:55;;;;;;;12.93;2.93;;;;;;;;;;10220917;28;20206;-67
2024/01/27 08:23:56;;;;;;;15.43;3.17;;;;;;;;;;10220339;29;20196;-68
2024/01/27 08:28:58;;;;;;;14.23;3.23;;;;;;;;;;10223337;28;20211;-67
2024/01/27 08:33:58;;;;;;;22.60;4.03;;;;;;;;;;10223848;28;20261;-68
2024/01/27 08:38:58;;;;;;;16.37;2.93;;;;;;;;;;10224816;28;20231;-67
2024/01/27 08:43:58;;;;;;;19.87;3.27;;;;;;;;;;10226892;29;20270;-67
2024/01/27 08:48:58;;;;;;;23.50;3.27;;;;;;;;;;10225472;28;20215;-67
2024/01/27 08:53:59;;;;;;;19.30;3.43;;;;;;;;;;10229153;28;20475;-67
2024/01/27 08:58:59;;;;;;;26.77;3.47;;;;;;;;;;10226327;28;20211;-67
2024/01/27 09:04:00;;;;;;;11.67;2.90;;;;;;;;;;10226409;29;20224;-67
2024/01/27 09:09:00;;;;;;;10.73;3.00;;;;;;;;;;10223282;28;20215;-68
2024/01/27 09:14:01;;;;;;;12.07;2.77;;;;;;;;;;10225641;28;20231;-67
2024/01/27 09:19:01;;;;;;;10.60;3.30;;;;;;;;;;10226037;28;20463;-68
2024/01/27 09:24:02;;;;;;;16.50;3.03;;;;;;;;;;10225453;28;20195;-68
2024/01/27 09:29:02;;;;;;;16.60;3.27;;;;;;;;;;10225310;28;20709;-68
2024/01/27 09:34:02;;;;;;;19.00;4.07;;;;;;;;;;10225290;29;20219;-68
2024/01/27 09:39:03;;;;;;;24.17;4.30;;;;;;;;;;10224872;28;20363;-68
2024/01/27 09:44:03;;;;;;;17.07;3.77;;;;;;;;;;10222148;29;20657;-68
2024/01/27 09:49:04;;;;;;;20.50;4.50;;;;;;;;;;10223653;28;20220;-68
2024/01/27 09:54:04;;;;;;;20.87;4.10;;;;;;;;;;10227238;28;20223;-68
2024/01/27 09:59:05;;;;;;;19.17;4.20;;;;;;;;;;10225975;28;20208;-68
2024/01/27 10:04:08;;;;;;;17.67;3.47;;;;;;;;;;10224311;28;20203;-68
2024/01/27 10:09:09;;;;;;;13.47;3.57;;;;;;;;;;10224222;29;20199;-68
2024/01/27 10:14:09;;;;;;;18.77;3.20;;;;;;;;;;10220839;28;20216;-68
2024/01/27 10:19:16;;;;;;;22.93;4.27;;;;;;;;;;10223741;28;20199;-68
2024/01/27 10:24:16;;;;;;;14.87;3.63;;;;;;;;;;10223657;28;20207;-69
2024/01/27 10:29:16;;;;;;;20.67;3.63;;;;;;;;;;10297128;28;20196;-69
2024/01/27 10:34:19;;;;;;;20.00;3.87;;;;;;;;;;10223250;28;20215;-68
2024/01/27 10:39:20;;;;;;;11.93;3.47;;;;;;;;;;10223001;28;20192;-68
2024/01/27 10:44:20;;;;;;;13.93;3.67;;;;;;;;;;10220802;28;20657;-69
2024/01/27 10:49:21;;;;;;;25.37;4.80;;;;;;;;;;10222837;28;20191;-69
2024/01/27 10:54:26;;;;;;;17.83;3.37;;;;;;;;;;10221662;28;20569;-68
2024/01/27 10:59:26;;;;;;;14.67;4.27;;;;;;;;;;10221741;29;20188;-69
2024/01/27 11:04:28;;;;;;;21.17;3.70;;;;;;;;;;10223439;28;20581;-68
2024/01/27 11:09:29;;;;;;;14.50;3.70;;;;;;;;;;10223432;28;20188;-69
2024/01/27 11:14:29;;;;;;;16.90;3.83;;;;;;;;;;10223260;28;20223;-68
2024/01/27 11:19:29;;;;;;;19.03;4.00;;;;;;;;;;10223260;29;20282;-69
2024/01/27 11:24:29;;;;;;;18.00;3.37;;;;;;;;;;10223338;28;20219;-69
2024/01/27 11:29:32;;;;;;;13.63;3.63;;;;;;;;;;10221086;28;20192;-69
2024/01/27 11:34:45;;;;;;;14.77;3.03;;;;;;;;;;10223982;28;20277;-68
2024/01/27 11:39:45;;;;;;;16.63;3.33;;;;;;;;;;10221513;28;20196;-69
2024/01/27 11:44:45;;;;;;;14.47;2.90;;;;;;;;;;10221441;28;20220;-69
2024/01/27 11:49:54;;;;;;;23.13;3.10;;;;;;;;;;10221797;28;20238;-70
2024/01/27 11:54:55;;;;;;;10.30;2.70;;;;;;;;;;10228525;28;20231;-70
2024/01/27 11:59:57;;;;;;;15.87;3.27;;;;;;;;;;10221816;29;20662;-70
2024/01/27 12:04:57;;;;;;;10.80;3.33;;;;;;;;;;10221811;28;20306;-71
2024/01/27 12:09:58;;;;;;;15.53;3.10;;;;;;;;;;10220806;29;20287;-70
2024/01/27 12:15:00;;;;;;;20.83;3.43;;;;;;;;;;10221584;28;20227;-71
2024/01/27 12:20:00;;;;;;;15.77;3.23;;;;;;;;;;10221293;28;20194;-72
2024/01/27 12:25:10;;;;;;;14.33;3.20;;;;;;;;;;10221391;28;20697;-71
2024/01/27 12:30:11;;;;;;;17.43;2.97;;;;;;;;;;10165612;22;20747;-69
2024/01/27 12:35:12;;;;;;;12.67;2.97;;;;;;;;;;10150548;29;20236;-69
2024/01/27 12:40:22;;;;;;;12.00;2.90;;;;;;;;;;10160338;28;20209;-69
2024/01/27 12:45:22;;;;;;;12.47;2.63;;;;;;;;;;10148905;28;20185;-68
2024/01/27 12:50:22;;;;;;;14.98;3.97;;;;;;;;;;10129379;28;20243;-68
2024/01/27 12:55:22;;;;;;;15.10;3.92;;;;;;;;;;10122355;29;20232;-69
2024/01/27 13:00:23;;;;;;;13.77;3.23;;;;;;;;;;10122322;28;20469;-69
2024/01/27 13:05:23;;;;;;;12.17;3.43;;;;;;;;;;10121215;28;20805;-68
2024/01/27 13:10:23;;;;;;;12.55;3.17;;;;;;;;;;10120666;29;20217;-68
2024/01/27 13:15:25;;;;;;;9.15;2.83;;;;;;;;;;10122207;29;20208;-69
2024/01/27 13:20:25;;;;;;;8.80;2.42;;;;;;;;;;10122281;28;20217;-69
2024/01/27 13:25:25;;;;;;;16.17;2.70;;;;;;;;;;10128126;28;20239;-68
2024/01/27 13:30:26;;;;;;;12.77;2.53;;;;;;;;;;10128054;29;20295;-68
2024/01/27 13:35:27;;;;;;;12.70;3.03;;;;;;;;;;10128057;28;20207;-68
2024/01/27 13:40:27;;;;;;;7.97;2.60;;;;;;;;;;10127838;28;20230;-69
2024/01/27 13:45:27;;;;;;;12.52;3.50;;;;;;;;;;10127619;29;20726;-69
2024/01/27 13:50:30;;;;;;;12.85;2.47;;;;;;;;;;10127360;28;20280;-69
2024/01/27 13:55:31;;;;;;;9.75;2.70;;;;;;;;;;10127039;29;20202;-69
2024/01/27 14:00:33;;;;;;;11.80;2.80;;;;;;;;;;10127323;28;20657;-68
2024/01/27 14:05:33;;;;;;;11.88;2.63;;;;;;;;;;10127294;29;20237;-68
2024/01/27 14:10:35;;;;;;;13.35;2.67;;;;;;;;;;10126845;28;21526;-68
2024/01/27 14:15:36;;;;;;;13.52;2.53;;;;;;;;;;10126718;29;20284;-67
2024/01/27 14:20:37;;;;;;;11.87;2.13;;;;;;;;;;10126615;29;20193;-66
2024/01/27 14:25:37;;;;;;;10.27;2.43;;;;;;;;;;10126227;28;20249;-67
2024/01/27 14:30:39;;;;;;;12.70;2.70;;;;;;;;;;10126101;29;20261;-66
2024/01/27 14:35:40;;;;;;;10.73;2.57;;;;;;;;;;10125564;29;20194;-66
2024/01/27 14:40:40;;;;;;;10.70;3.00;;;;;;;;;;10126123;29;20193;-66
2024/01/27 14:45:40;;;;;;;5.47;2.40;;;;;;;;;;10126146;28;20217;-67
2024/01/27 14:50:40;;;;;;;12.67;2.80;;;;;;;;;;10129382;29;20193;-69
2024/01/27 14:55:40;;;;;;;15.07;2.50;;;;;;;;;;10135270;28;20437;-67
2024/01/27 15:00:41;;;;;;;19.23;3.77;;;;;;;;;;10155950;28;20197;-69
2024/01/27 15:05:41;;;;;;;12.27;2.57;;;;;;;;;;10125715;28;20311;-69
2024/01/27 15:10:47;;;;;;;12.57;2.70;;;;;;;;;;10125475;28;20264;-69
2024/01/27 15:15:47;;;;;;;18.77;2.87;;;;;;;;;;10128368;29;20197;-68
2024/01/27 15:20:47;;;;;;;10.70;2.40;;;;;;;;;;10132685;29;20193;-68
2024/01/27 15:25:47;;;;;;;9.97;2.70;;;;;;;;;;10133903;28;20588;-68
2024/01/27 15:30:49;;;;;;;18.33;3.90;;;;;;;;;;10131669;29;20590;-68
2024/01/27 15:35:49;;;;;;;21.07;5.90;;;;;;;;;;10130738;28;20197;-68
2024/01/27 15:40:49;;;;;;;37.97;14.43;;;;;;;;;;10132550;29;20202;-68
2024/01/27 15:45:51;;;;;;;14.97;4.00;;;;;;;;;;10130001;29;20618;-68
2024/01/27 15:50:52;;;;;;;15.53;3.47;;;;;;;;;;10131950;29;20953;-67
2024/01/27 15:55:52;;;;;;;15.23;4.47;;;;;;;;;;10130708;29;20186;-68
2024/01/27 16:00:52;;;;;;;5.50;2.83;;;;;;;;;;10124755;28;20200;-67
2024/01/27 16:05:52;;;;;;;15.60;3.43;;;;;;;;;;10122390;29;20508;-67
2024/01/27 16:10:53;;;;;;;14.15;4.30;;;;;;;;;;10126865;28;20201;-67
2024/01/27 16:15:53;;;;;;;10.13;3.27;;;;;;;;;;10128854;29;20207;-67
2024/01/27 16:20:53;;;;;;;17.37;3.50;;;;;;;;;;10126186;29;20232;-67
2024/01/27 16:25:53;;;;;;;10.13;3.23;;;;;;;;;;10124111;29;20275;-68
2024/01/27 16:30:54;;;;;;;15.70;2.93;;;;;;;;;;10123704;29;20205;-68
2024/01/27 16:35:54;;;;;;;8.37;2.80;;;;;;;;;;10125061;28;20239;-68
2024/01/27 16:40:54;;;;;;;17.90;3.90;;;;;;;;;;10124248;29;20203;-67
2024/01/27 16:45:55;;;;;;;21.27;4.83;;;;;;;;;;10126573;29;20239;-67
2024/01/27 16:50:56;;;;;;;13.00;3.83;;;;;;;;;;10128513;28;20193;-68
2024/01/27 16:55:57;;;;;;;21.40;10.90;;;;;;;;;;10123328;29;20291;-68
2024/01/27 17:00:57;;;;;;;21.07;6.00;;;;;;;;;;10130235;29;20255;-68
2024/01/27 17:05:59;;;;;;;21.80;4.17;;;;;;;;;;10129563;28;20224;-68
2024/01/27 17:10:59;;;;;;;22.47;5.43;;;;;;;;;;10127524;29;20449;-68
2024/01/27 17:15:59;;;;;;;19.33;4.33;;;;;;;;;;10130253;28;20592;-68
2024/01/27 17:21:01;;;;;;;17.80;3.80;;;;;;;;;;10129809;28;20227;-68
2024/01/27 17:26:02;;;;;;;18.40;5.83;;;;;;;;;;10128969;29;20511;-67
2024/01/27 17:31:03;;;;;;;17.17;3.87;;;;;;;;;;10130278;28;20263;-68
2024/01/27 17:36:03;;;;;;;16.70;2.93;;;;;;;;;;10128056;29;20962;-68
2024/01/27 17:41:04;;;;;;;13.30;3.10;;;;;;;;;;10110798;28;20193;-68
2024/01/27 17:46:05;;;;;;;11.23;3.50;;;;;;;;;;10128175;29;20225;-68
2024/01/27 17:51:07;;;;;;;17.47;3.57;;;;;;;;;;10127543;29;20243;-68
2024/01/27 17:56:07;;;;;;;16.33;2.93;;;;;;;;;;10129107;29;21077;-68
2024/01/27 18:01:08;;;;;;;10.77;2.73;;;;;;;;;;10144308;28;20289;-67
2024/01/27 18:06:08;;;;;;;13.37;2.63;;;;;;;;;;10137838;29;20221;-68
2024/01/27 18:11:08;;;;;;;16.83;3.33;;;;;;;;;;10137159;28;20194;-68
2024/01/27 18:16:09;;;;;;;16.47;4.37;;;;;;;;;;10137900;28;20472;-67
2024/01/27 18:21:09;;;;;;;13.50;3.57;;;;;;;;;;10137748;28;20656;-68
2024/01/27 18:26:09;;;;;;;16.53;3.63;;;;;;;;;;10134370;28;20240;-68
2024/01/27 18:31:09;;;;;;;18.70;2.93;;;;;;;;;;10134628;28;20599;-68
2024/01/27 18:36:10;;;;;;;17.57;4.00;;;;;;;;;;10130392;29;20209;-68
2024/01/27 18:41:11;;;;;;;13.53;2.90;;;;;;;;;;10140752;28;20197;-68
2024/01/27 18:46:12;;;;;;;17.03;3.80;;;;;;;;;;10132439;29;20244;-68
2024/01/27 18:51:12;;;;;;;17.63;4.07;;;;;;;;;;10142549;29;20285;-68
2024/01/27 18:56:14;;;;;;;12.30;3.27;;;;;;;;;;10143882;28;20220;-67
2024/01/27 19:01:14;;;;;;;14.27;3.93;;;;;;;;;;10145108;29;20205;-68
2024/01/27 19:06:14;;;;;;;12.27;4.17;;;;;;;;;;10143924;29;20222;-68
2024/01/27 19:11:14;;;;;;;15.60;2.97;;;;;;;;;;10143206;28;20572;-68
2024/01/27 19:16:14;;;;;;;22.47;3.40;;;;;;;;;;10142710;28;20220;-68
2024/01/27 19:21:14;;;;;;;20.77;3.13;;;;;;;;;;10140215;28;20190;-68
2024/01/27 19:26:15;;;;;;;11.53;3.00;;;;;;;;;;10143100;29;20320;-68
2024/01/27 19:31:15;;;;;;;14.43;4.47;;;;;;;;;;10142812;29;20849;-68
2024/01/27 19:36:15;;;;;;;13.80;4.97;;;;;;;;;;10142568;28;20217;-68
2024/01/27 19:41:16;;;;;;;17.60;3.53;;;;;;;;;;10142976;28;20198;-68
2024/01/27 19:46:16;;;;;;;13.10;4.33;;;;;;;;;;10148045;29;20224;-67
2024/01/27 19:51:16;;;;;;;14.80;2.80;;;;;;;;;;10145815;28;20198;-67
2024/01/27 19:56:16;;;;;;;21.13;3.57;;;;;;;;;;10142997;28;20216;-68
2024/01/27 20:01:17;;;;;;;12.60;3.77;;;;;;;;;;10138622;29;20640;-69
2024/01/27 20:06:17;;;;;;;21.13;6.50;;;;;;;;;;10132017;28;20237;-69
2024/01/27 20:11:17;;;;;;;15.87;5.23;;;;;;;;;;10137329;29;20197;-69
2024/01/27 20:16:17;;;;;;;21.40;4.90;;;;;;;;;;10141900;29;20213;-68
2024/01/27 20:21:19;;;;;;;23.27;4.20;;;;;;;;;;10143333;29;20244;-68
2024/01/27 20:26:19;;;;;;;12.03;3.97;;;;;;;;;;10142786;29;20263;-69
2024/01/27 20:31:19;;;;;;;18.63;5.40;;;;;;;;;;10144608;29;20286;-67
2024/01/27 20:36:19;;;;;;;18.40;5.87;;;;;;;;;;10149031;28;20231;-70
2024/01/27 20:41:21;;;;;;;13.77;4.90;;;;;;;;;;10148492;29;20235;-69
2024/01/27 20:46:21;;;;;;;18.50;5.13;;;;;;;;;;10147933;29;20654;-68
2024/01/27 20:51:21;;;;;;;16.40;5.57;;;;;;;;;;10144827;28;20212;-69
2024/01/27 20:56:21;;;;;;;23.80;5.90;;;;;;;;;;10146763;28;20225;-68
2024/01/27 21:01:22;;;;;;;17.53;5.33;;;;;;;;;;10146654;29;20686;-69
2024/01/27 21:06:22;;;;;;;17.70;5.13;;;;;;;;;;10163666;28;20227;-69
2024/01/27 21:11:22;;;;;;;16.57;5.63;;;;;;;;;;10146907;28;20456;-68
2024/01/27 21:16:22;;;;;;;20.90;6.00;;;;;;;;;;10147214;28;20223;-68
2024/01/27 21:21:22;;;;;;;28.70;6.10;;;;;;;;;;10147060;28;20192;-68
2024/01/27 21:26:23;;;;;;;26.37;9.60;;;;;;;;;;10146427;29;20745;-68
2024/01/27 21:31:23;;;;;;;15.83;5.17;;;;;;;;;;10146510;28;20689;-69
2024/01/27 21:36:23;;;;;;;14.40;4.90;;;;;;;;;;10146171;28;20217;-68
2024/01/27 21:41:24;;;;;;;17.10;4.67;;;;;;;;;;10146639;28;20648;-67
2024/01/27 21:46:24;;;;;;;15.03;5.03;;;;;;;;;;10145743;29;20275;-68
2024/01/27 21:51:25;;;;;;;16.80;4.80;;;;;;;;;;10145934;29;20200;-69
2024/01/27 21:56:25;;;;;;;14.33;4.27;;;;;;;;;;10145876;29;20300;-69
2024/01/27 22:01:26;;;;;;;14.53;5.13;;;;;;;;;;10145643;29;20207;-69
2024/01/27 22:06:26;;;;;;;22.70;5.70;;;;;;;;;;10145557;29;20606;-68
2024/01/27 22:11:26;;;;;;;17.57;7.17;;;;;;;;;;10147016;28;20193;-69
2024/01/27 22:16:26;;;;;;;16.97;4.87;;;;;;;;;;10145281;29;20760;-69
2024/01/27 22:21:27;;;;;;;20.23;4.83;;;;;;;;;;10145180;28;20467;-68
2024/01/27 22:26:28;;;;;;;12.73;4.57;;;;;;;;;;10144391;28;20657;-69
2024/01/27 22:31:31;;;;;;;17.63;5.77;;;;;;;;;;10145100;28;20189;-69
2024/01/27 22:36:31;;;;;;;15.87;4.60;;;;;;;;;;10143433;28;20262;-68
2024/01/27 22:41:31;;;;;;;15.13;4.13;;;;;;;;;;10144929;28;20250;-68
2024/01/27 22:46:32;;;;;;;12.87;4.50;;;;;;;;;;10143958;28;20263;-68
2024/01/27 22:51:32;;;;;;;12.38;4.18;;;;;;;;;;10144482;29;20285;-68
2024/01/27 22:56:32;;;;;;;20.97;4.33;;;;;;;;;;10143566;29;20265;-68
2024/01/27 23:01:32;;;;;;;11.27;4.53;;;;;;;;;;10144073;28;20460;-67
2024/01/27 23:06:33;;;;;;;18.60;5.37;;;;;;;;;;10143312;29;20224;-68
2024/01/27 23:11:35;;;;;;;10.13;4.40;;;;;;;;;;10142528;29;20198;-68
2024/01/27 23:16:35;;;;;;;19.23;4.87;;;;;;;;;;10143682;28;20225;-68
2024/01/27 23:21:36;;;;;;;18.80;5.33;;;;;;;;;;10143685;28;20625;-68
2024/01/27 23:26:36;;;;;;;7.80;4.17;;;;;;;;;;10143011;28;20241;-68
2024/01/27 23:31:36;;;;;;;15.20;4.73;;;;;;;;;;10143403;28;20185;-68
2024/01/27 23:36:37;;;;;;;7.70;3.87;;;;;;;;;;10143795;29;20213;-68
2024/01/27 23:41:38;;;;;;;16.37;5.00;;;;;;;;;;10144803;29;20658;-68
2024/01/27 23:46:38;;;;;;;22.07;4.67;;;;;;;;;;10143675;28;20213;-69
2024/01/27 23:51:40;;;;;;;12.47;3.97;;;;;;;;;;10144489;28;20633;-69
2024/01/27 23:56:40;;;;;;;23.80;4.93;;;;;;;;;;10143791;29;20256;-69
